createdAt,value
2022-12-31T00:02:01.621Z,100223.94
2022-12-31T00:04:28.069Z,100231.78
2022-12-31T00:06:54.434Z,100226.44
2022-12-31T00:09:20.904Z,100230.06
2022-12-31T00:11:47.432Z,100221.94
2022-12-31T00:14:14.475Z,100220.13
2022-12-31T00:16:41.933Z,100228.13
2022-12-31T00:19:10.948Z,100229.03
2022-12-31T00:21:38.536Z,100214.75
2022-12-31T00:24:06.243Z,100213.81
2022-12-31T00:26:34.435Z,100206.75
2022-12-31T00:29:01.956Z,100191.56
2022-12-31T00:31:34.802Z,100189.75
2022-12-31T00:34:01.901Z,100188.00
2022-12-31T00:36:31.241Z,100172.94
2022-12-31T00:38:59.223Z,100188.78
2022-12-31T00:41:27.075Z,100181.72
2022-12-31T00:43:54.009Z,100187.94
2022-12-31T00:46:21.499Z,100179.78
2022-12-31T00:48:48.490Z,100172.72
2022-12-31T00:51:17.827Z,100177.22
2022-12-31T00:53:44.841Z,100169.28
2022-12-31T00:56:14.274Z,100172.72
2022-12-31T00:58:41.194Z,100173.69
2022-12-31T01:01:11.210Z,100178.94
2022-12-31T01:03:38.072Z,100168.34
2022-12-31T01:06:05.007Z,100167.38
2022-12-31T01:08:31.546Z,100162.81
2022-12-31T01:11:17.978Z,100168.16
2022-12-31T01:13:49.516Z,100160.31
2022-12-31T01:16:17.158Z,100154.84
2022-12-31T01:18:43.560Z,100160.13
2022-12-31T01:21:11.563Z,100162.03
2022-12-31T01:23:38.525Z,100159.16
2022-12-31T01:26:08.500Z,100151.97
2022-12-31T01:28:35.333Z,100154.78
2022-12-31T01:31:12.619Z,100149.22
2022-12-31T01:33:40.008Z,100154.66
2022-12-31T01:36:12.486Z,100154.56
2022-12-31T01:38:39.870Z,100168.88
2022-12-31T01:41:07.191Z,100175.97
2022-12-31T01:43:50.529Z,100176.84
2022-12-31T01:46:36.153Z,100176.91
2022-12-31T01:49:16.890Z,100169.09
2022-12-31T01:51:46.839Z,100161.84
2022-12-31T01:54:16.977Z,100168.81
2022-12-31T01:56:45.299Z,100166.03
2022-12-31T01:59:14.511Z,100162.50
2022-12-31T02:01:41.013Z,100137.38
2022-12-31T02:04:13.294Z,100168.69
2022-12-31T02:07:02.133Z,100178.53
2022-12-31T02:09:29.489Z,100186.44
2022-12-31T02:11:55.854Z,100169.47
2022-12-31T02:14:27.018Z,100179.41
2022-12-31T02:17:16.911Z,100181.09
2022-12-31T02:19:43.275Z,100195.25
2022-12-31T02:22:32.310Z,100190.75
2022-12-31T02:25:17.314Z,100193.34
2022-12-31T02:28:06.060Z,100204.03
2022-12-31T02:30:34.580Z,100207.66
2022-12-31T02:33:12.482Z,100200.41
2022-12-31T02:35:45.104Z,100199.44
2022-12-31T02:38:17.022Z,100202.97
2022-12-31T02:40:43.667Z,100194.09
2022-12-31T02:43:10.084Z,100207.38
2022-12-31T02:45:50.538Z,100208.31
2022-12-31T02:48:35.290Z,100214.44
2022-12-31T02:51:21.530Z,100219.91
2022-12-31T02:54:03.647Z,100223.31
2022-12-31T02:56:51.805Z,100210.91
2022-12-31T02:59:52.645Z,100232.50
2022-12-31T03:02:22.838Z,100235.75
2022-12-31T03:04:53.560Z,100248.19
2022-12-31T03:07:23.183Z,100242.06
2022-12-31T03:09:50.423Z,100232.88
2022-12-31T03:12:37.020Z,100231.16
2022-12-31T03:15:06.664Z,100224.19
2022-12-31T03:17:34.200Z,100232.13
2022-12-31T03:20:19.564Z,100233.75
2022-12-31T03:22:45.967Z,100230.28
2022-12-31T03:25:33.982Z,100247.22
2022-12-31T03:28:06.599Z,100248.84
2022-12-31T03:30:34.461Z,100247.97
2022-12-31T03:33:01.044Z,100218.53
2022-12-31T03:35:29.602Z,100225.81
2022-12-31T03:37:56.601Z,100222.06
2022-12-31T03:40:24.831Z,100228.22
2022-12-31T03:42:51.679Z,100226.41
2022-12-31T03:45:18.245Z,100231.91
2022-12-31T03:47:44.950Z,100227.16
2022-12-31T03:50:13.548Z,100209.38
2022-12-31T03:52:40.346Z,100226.28
2022-12-31T03:55:08.179Z,100224.47
2022-12-31T03:57:34.817Z,100239.78
2022-12-31T04:00:01.273Z,100205.00
2022-12-31T04:02:29.280Z,100222.56
2022-12-31T04:04:56.062Z,100228.88
2022-12-31T04:07:22.568Z,100228.13
2022-12-31T04:09:48.965Z,100224.28
2022-12-31T04:12:15.517Z,100228.88
2022-12-31T04:14:41.907Z,100212.25
2022-12-31T04:17:08.250Z,100226.94
2022-12-31T04:19:34.777Z,100219.88
2022-12-31T04:22:01.151Z,100223.53
2022-12-31T04:24:27.697Z,100218.84
2022-12-31T04:26:54.195Z,100238.44
2022-12-31T04:29:20.682Z,100218.91
2022-12-31T04:31:47.157Z,100211.66
2022-12-31T04:34:13.824Z,100231.44
2022-12-31T04:36:40.282Z,100215.97
2022-12-31T04:39:06.653Z,100227.59
2022-12-31T04:41:33.092Z,100225.03
2022-12-31T04:43:59.984Z,100239.28
2022-12-31T04:46:32.435Z,100226.53
2022-12-31T04:48:59.138Z,100234.56
2022-12-31T04:51:26.695Z,100225.69
2022-12-31T04:53:53.431Z,100231.13
2022-12-31T04:56:20.371Z,100238.09
2022-12-31T04:58:47.284Z,100241.75
2022-12-31T05:01:14.297Z,100240.78
2022-12-31T05:03:41.272Z,100243.38
2022-12-31T05:06:11.985Z,100266.63
2022-12-31T05:08:38.546Z,100251.41
2022-12-31T05:11:04.963Z,100257.69
2022-12-31T05:13:33.494Z,100247.00
2022-12-31T05:16:00.954Z,100255.03
2022-12-31T05:18:27.478Z,100279.78
2022-12-31T05:20:53.871Z,100277.00
2022-12-31T05:23:22.620Z,100267.16
2022-12-31T05:25:49.614Z,100286.75
2022-12-31T05:28:16.940Z,100259.97
2022-12-31T05:30:44.375Z,100291.16
2022-12-31T05:33:11.184Z,100286.66
2022-12-31T05:35:37.761Z,100279.56
2022-12-31T05:38:04.157Z,100285.13
2022-12-31T05:40:30.519Z,100295.63
2022-12-31T05:42:56.928Z,100297.56
2022-12-31T05:45:30.137Z,100295.19
2022-12-31T05:47:57.768Z,100312.59
2022-12-31T05:50:24.161Z,100311.50
2022-12-31T05:52:50.622Z,100308.94
2022-12-31T05:55:17.124Z,100316.19
2022-12-31T05:57:43.525Z,100320.31
2022-12-31T06:00:11.180Z,100310.44
2022-12-31T06:02:37.660Z,100320.38
2022-12-31T06:05:04.543Z,100305.09
2022-12-31T06:07:30.913Z,100317.50
2022-12-31T06:09:58.457Z,100311.44
2022-12-31T06:12:24.807Z,100311.50
2022-12-31T06:14:51.252Z,100313.91
2022-12-31T06:17:17.734Z,100322.69
2022-12-31T06:19:44.171Z,100333.38
2022-12-31T06:22:10.537Z,100316.47
2022-12-31T06:24:36.905Z,100334.56
2022-12-31T06:27:03.334Z,100307.47
2022-12-31T06:29:29.844Z,100334.34
2022-12-31T06:31:56.194Z,100319.72
2022-12-31T06:34:22.763Z,100356.44
2022-12-31T06:36:49.395Z,100337.69
2022-12-31T06:39:18.897Z,100345.84
2022-12-31T06:41:45.362Z,100348.41
2022-12-31T06:44:11.962Z,100343.91
2022-12-31T06:46:38.420Z,100351.00
2022-12-31T06:49:04.919Z,100341.53
2022-12-31T06:51:31.473Z,100339.50
2022-12-31T06:53:57.945Z,100336.06
2022-12-31T06:56:33.848Z,100341.34
2022-12-31T06:59:01.350Z,100358.25
2022-12-31T07:01:39.218Z,100358.91
2022-12-31T07:04:24.566Z,100346.50
2022-12-31T07:07:28.675Z,100357.28
2022-12-31T07:10:16.499Z,100361.72
2022-12-31T07:13:00.569Z,100356.34
2022-12-31T07:16:02.667Z,100360.81
2022-12-31T07:18:29.034Z,100372.41
2022-12-31T07:21:11.204Z,100374.13
2022-12-31T07:23:37.876Z,100356.56
2022-12-31T07:26:33.032Z,100371.53
2022-12-31T07:29:18.745Z,100368.78
2022-12-31T07:32:05.653Z,100370.47
2022-12-31T07:34:34.989Z,100389.16
2022-12-31T07:37:34.493Z,100387.72
2022-12-31T07:40:19.604Z,100382.25
2022-12-31T07:43:07.325Z,100389.16
2022-12-31T07:45:39.807Z,100384.66
2022-12-31T07:48:21.029Z,100378.44
2022-12-31T07:50:47.726Z,100355.19
2022-12-31T07:53:14.450Z,100386.16
2022-12-31T07:55:40.889Z,100396.75
2022-12-31T07:58:40.605Z,100378.00
2022-12-31T08:01:11.662Z,100379.75
2022-12-31T08:04:02.513Z,100392.06
2022-12-31T08:06:41.009Z,100404.41
2022-12-31T08:09:39.147Z,100400.78
2022-12-31T08:12:07.556Z,100394.34
2022-12-31T08:14:47.960Z,100402.97
2022-12-31T08:17:16.471Z,100395.59
2022-12-31T08:19:43.453Z,100401.72
2022-12-31T08:22:28.415Z,100425.50
2022-12-31T08:25:01.953Z,100439.88
2022-12-31T08:27:52.825Z,100442.13
2022-12-31T08:30:21.565Z,100430.66
2022-12-31T08:33:00.289Z,100423.94
2022-12-31T08:35:39.115Z,100461.34
2022-12-31T08:38:38.153Z,100440.03
2022-12-31T08:41:21.539Z,100447.88
2022-12-31T08:43:57.971Z,100431.66
2022-12-31T08:46:33.423Z,100439.44
2022-12-31T08:49:00.106Z,100469.13
2022-12-31T08:51:27.526Z,100459.81
2022-12-31T08:53:55.257Z,100484.50
2022-12-31T08:56:36.157Z,100487.81
2022-12-31T08:59:17.877Z,100476.13
2022-12-31T09:02:13.617Z,100484.97
2022-12-31T09:05:06.767Z,100496.66
2022-12-31T09:08:23.401Z,100496.56
2022-12-31T09:11:04.284Z,100510.63
2022-12-31T09:13:56.183Z,100509.47
2022-12-31T09:17:03.179Z,100520.09
2022-12-31T09:19:29.608Z,100518.19
2022-12-31T09:21:56.322Z,100508.13
2022-12-31T09:24:22.992Z,100513.28
2022-12-31T09:27:04.521Z,100530.69
2022-12-31T09:29:38.862Z,100517.06
2022-12-31T09:32:30.838Z,100518.00
2022-12-31T09:35:05.001Z,100539.84
2022-12-31T09:38:07.993Z,100542.13
2022-12-31T09:40:37.647Z,100544.59
2022-12-31T09:43:31.355Z,100561.34
2022-12-31T09:46:06.888Z,100541.47
2022-12-31T09:48:44.931Z,100549.66
2022-12-31T09:51:21.765Z,100571.56
2022-12-31T09:54:22.410Z,100570.38
2022-12-31T09:57:06.343Z,100574.56
2022-12-31T10:00:09.835Z,100564.63
2022-12-31T10:02:54.812Z,100578.69
2022-12-31T10:05:46.861Z,100590.94
2022-12-31T10:08:30.573Z,100561.31
2022-12-31T10:11:11.372Z,100576.25
2022-12-31T10:13:45.122Z,100587.56
2022-12-31T10:16:44.562Z,100598.28
2022-12-31T10:19:52.445Z,100595.91
2022-12-31T10:22:36.830Z,100598.66
2022-12-31T10:25:38.463Z,100592.75
2022-12-31T10:28:11.793Z,100581.09
2022-12-31T10:30:47.918Z,100576.19
2022-12-31T10:33:34.344Z,100562.69
2022-12-31T10:36:20.247Z,100570.41
2022-12-31T10:39:12.884Z,100561.94
2022-12-31T10:42:08.071Z,100557.34
2022-12-31T10:45:03.055Z,100577.06
2022-12-31T10:47:52.767Z,100557.78
2022-12-31T10:50:22.066Z,100562.06
2022-12-31T10:52:51.443Z,100571.63
2022-12-31T10:55:39.335Z,100573.13
2022-12-31T10:58:33.874Z,100573.13
2022-12-31T11:01:18.630Z,100572.16
2022-12-31T11:03:52.470Z,100585.38
2022-12-31T11:06:40.628Z,100592.47
2022-12-31T11:09:32.751Z,100590.75
2022-12-31T11:12:38.623Z,100587.94
2022-12-31T11:15:20.642Z,100571.94
2022-12-31T11:18:23.302Z,100591.72
2022-12-31T11:21:22.824Z,100586.16
2022-12-31T11:24:29.127Z,100586.88
2022-12-31T11:27:12.138Z,100594.09
2022-12-31T11:30:01.351Z,100593.88
2022-12-31T11:32:58.483Z,100609.34
2022-12-31T11:35:47.152Z,100604.19
2022-12-31T11:38:25.025Z,100590.00
2022-12-31T11:43:52.299Z,100601.63
2022-12-31T11:46:44.809Z,100593.44
2022-12-31T11:49:30.269Z,100602.47
2022-12-31T11:52:10.002Z,100594.28
2022-12-31T11:55:03.574Z,100600.53
2022-12-31T11:57:29.907Z,100596.91
2022-12-31T12:00:23.478Z,100616.44
2022-12-31T12:02:56.092Z,100607.44
2022-12-31T12:05:24.519Z,100616.34
2022-12-31T12:07:51.896Z,100599.47
2022-12-31T12:10:30.453Z,100610.84
2022-12-31T12:13:30.335Z,100610.84
2022-12-31T12:16:03.074Z,100602.69
2022-12-31T12:18:40.660Z,100614.09
2022-12-31T12:21:23.930Z,100603.34
2022-12-31T12:23:58.699Z,100609.56
2022-12-31T12:26:30.114Z,100605.91
2022-12-31T12:29:00.848Z,100601.41
2022-12-31T12:31:27.462Z,100610.31
2022-12-31T12:33:53.882Z,100602.25
2022-12-31T12:36:21.944Z,100599.47
2022-12-31T12:38:48.597Z,100598.81
2022-12-31T12:41:26.460Z,100593.44
2022-12-31T12:44:08.521Z,100608.59
2022-12-31T12:46:48.274Z,100606.97
2022-12-31T12:49:31.412Z,100579.69
2022-12-31T12:52:32.097Z,100607.44
2022-12-31T12:55:33.403Z,100602.28
2022-12-31T12:58:23.739Z,100603.97
2022-12-31T13:01:23.906Z,100623.56
2022-12-31T13:07:55.956Z,100627.19
2022-12-31T13:10:31.869Z,100647.59
2022-12-31T13:13:25.278Z,100631.59
2022-12-31T13:16:18.232Z,100620.94
2022-12-31T13:19:01.498Z,100628.38
2022-12-31T13:21:56.594Z,100614.94
2022-12-31T13:24:43.634Z,100635.56
2022-12-31T13:27:33.762Z,100623.19
2022-12-31T13:30:02.797Z,100619.66
2022-12-31T13:32:42.998Z,100627.81
2022-12-31T13:35:23.453Z,100613.63
2022-12-31T13:37:53.269Z,100615.56
2022-12-31T13:40:27.403Z,100615.56
2022-12-31T13:43:03.336Z,100628.03
2022-12-31T13:45:43.480Z,100618.38
2022-12-31T13:48:19.171Z,100590.66
2022-12-31T13:51:15.195Z,100603.50
2022-12-31T13:53:57.205Z,100608.47
2022-12-31T13:56:29.517Z,100599.44
2022-12-31T13:59:26.320Z,100604.59
2022-12-31T14:02:02.101Z,100607.50
2022-12-31T14:04:37.180Z,100609.97
2022-12-31T14:07:18.043Z,100607.19
2022-12-31T14:09:46.393Z,100612.66
2022-12-31T14:12:36.866Z,100600.00
2022-12-31T14:15:11.523Z,100613.44
2022-12-31T14:17:40.538Z,100600.94
2022-12-31T14:20:27.177Z,100592.16
2022-12-31T14:23:21.829Z,100612.78
2022-12-31T14:25:54.683Z,100621.78
2022-12-31T14:28:30.972Z,100619.97
2022-12-31T14:31:00.416Z,100628.22
2022-12-31T14:33:36.735Z,100631.22
2022-12-31T14:36:09.949Z,100626.72
2022-12-31T14:39:09.912Z,100633.19
2022-12-31T14:41:57.887Z,100628.47
2022-12-31T14:44:35.014Z,100622.31
2022-12-31T14:47:18.701Z,100615.75
2022-12-31T14:50:03.636Z,100633.84
2022-12-31T14:52:57.769Z,100628.47
2022-12-31T14:55:33.536Z,100632.97
2022-12-31T14:58:27.014Z,100633.84
2022-12-31T15:01:04.802Z,100634.78
2022-12-31T15:03:31.227Z,100631.22
2022-12-31T15:06:10.439Z,100630.38
2022-12-31T15:08:46.633Z,100627.03
2022-12-31T15:11:34.660Z,100635.22
2022-12-31T15:14:25.668Z,100648.53
2022-12-31T15:16:57.124Z,100631.97
2022-12-31T15:19:47.007Z,100640.88
2022-12-31T15:22:25.631Z,100650.63
2022-12-31T15:24:52.407Z,100645.41
2022-12-31T15:27:34.999Z,100629.97
2022-12-31T15:30:02.103Z,100627.78
2022-12-31T15:32:42.462Z,100633.34
2022-12-31T15:35:21.380Z,100631.63
2022-12-31T15:38:15.107Z,100629.97
2022-12-31T15:40:52.897Z,100624.69
2022-12-31T15:43:25.647Z,100625.66
2022-12-31T15:45:54.913Z,100623.84
2022-12-31T15:48:27.084Z,100632.94
2022-12-31T15:50:57.949Z,100635.63
2022-12-31T15:53:32.313Z,100643.81
2022-12-31T15:56:00.449Z,100637.78
2022-12-31T15:58:30.983Z,100638.63
2022-12-31T16:01:15.504Z,100637.13
2022-12-31T16:03:57.894Z,100641.66
2022-12-31T16:06:27.384Z,100631.09
2022-12-31T16:08:55.492Z,100641.84
2022-12-31T16:11:23.370Z,100629.28
2022-12-31T16:13:52.611Z,100624.22
2022-12-31T16:16:24.919Z,100634.72
2022-12-31T16:18:53.096Z,100635.81
2022-12-31T16:21:27.300Z,100636.88
2022-12-31T16:23:56.473Z,100630.72
2022-12-31T16:26:40.445Z,100627.59
2022-12-31T16:29:13.376Z,100618.59
2022-12-31T16:31:40.601Z,100619.66
2022-12-31T16:34:13.811Z,100630.00
2022-12-31T16:36:40.444Z,100620.53
2022-12-31T16:39:34.719Z,100634.78
2022-12-31T16:42:13.319Z,100628.56
2022-12-31T16:44:40.758Z,100626.75
2022-12-31T16:47:09.881Z,100638.44
2022-12-31T16:49:39.400Z,100641.13
2022-12-31T16:52:08.672Z,100639.41
2022-12-31T16:54:40.613Z,100629.53
2022-12-31T16:57:10.795Z,100626.28
2022-12-31T16:59:44.717Z,100624.38
2022-12-31T17:02:20.404Z,100628.00
2022-12-31T17:04:55.957Z,100623.72
2022-12-31T17:07:32.020Z,100626.47
2022-12-31T17:10:22.062Z,100615.09
2022-12-31T17:15:45.222Z,100611.44
2022-12-31T17:18:19.934Z,100609.25
2022-12-31T17:20:47.202Z,100623.25
2022-12-31T17:23:23.517Z,100606.31
2022-12-31T17:25:56.977Z,100617.16
2022-12-31T17:28:24.922Z,100622.03
2022-12-31T17:30:51.523Z,100621.81
2022-12-31T17:33:17.843Z,100630.72
2022-12-31T17:35:45.757Z,100631.59
2022-12-31T17:38:18.395Z,100627.06
2022-12-31T17:40:51.208Z,100621.94
2022-12-31T17:43:22.219Z,100615.69
2022-12-31T17:45:51.439Z,100618.38
2022-12-31T17:48:19.804Z,100606.22
2022-12-31T17:50:48.323Z,100604.28
2022-12-31T17:53:15.278Z,100599.78
2022-12-31T17:55:45.343Z,100603.44
2022-12-31T17:58:29.907Z,100607.19
2022-12-31T18:00:57.796Z,100611.78
2022-12-31T18:03:24.449Z,100591.41
2022-12-31T18:05:50.890Z,100602.13
2022-12-31T18:08:17.320Z,100597.53
2022-12-31T18:10:44.715Z,100595.78
2022-12-31T18:13:17.379Z,100598.47
2022-12-31T18:15:44.116Z,100589.75
2022-12-31T18:18:33.654Z,100590.72
2022-12-31T18:21:03.012Z,100584.50
2022-12-31T18:23:42.449Z,100593.50
2022-12-31T18:26:13.507Z,100593.50
2022-12-31T18:28:40.056Z,100595.44
2022-12-31T18:31:06.667Z,100594.66
2022-12-31T18:33:33.290Z,100595.53
2022-12-31T18:36:10.222Z,100599.94
2022-12-31T18:38:37.169Z,100593.91
2022-12-31T18:41:03.913Z,100594.66
2022-12-31T18:43:30.442Z,100601.84
2022-12-31T18:45:57.267Z,100595.63
2022-12-31T18:48:23.657Z,100573.72
2022-12-31T18:50:50.598Z,100581.38
2022-12-31T18:53:24.165Z,100565.38
2022-12-31T18:55:56.219Z,100579.75
2022-12-31T18:58:23.490Z,100591.44
2022-12-31T19:00:51.168Z,100587.13
2022-12-31T19:03:20.973Z,100592.38
2022-12-31T19:05:51.837Z,100602.16
2022-12-31T19:08:19.350Z,100605.69
2022-12-31T19:10:47.205Z,100607.53
2022-12-31T19:13:15.320Z,100611.91
2022-12-31T19:15:50.582Z,100610.94
2022-12-31T19:18:17.102Z,100605.59
2022-12-31T19:20:43.615Z,100614.59
2022-12-31T19:23:18.849Z,100622.44
2022-12-31T19:25:46.987Z,100623.31
2022-12-31T19:28:19.061Z,100622.44
2022-12-31T19:30:45.655Z,100615.38
2022-12-31T19:33:12.663Z,100624.16
2022-12-31T19:35:39.909Z,100629.53
2022-12-31T19:38:16.810Z,100627.81
2022-12-31T19:40:43.585Z,100631.28
2022-12-31T19:43:14.632Z,100633.84
2022-12-31T19:45:43.153Z,100629.53
2022-12-31T19:48:13.090Z,100634.69
2022-12-31T19:50:50.438Z,100659.59
2022-12-31T19:53:19.734Z,100652.50
2022-12-31T19:55:46.413Z,100642.84
2022-12-31T19:58:19.549Z,100650.78
2022-12-31T20:00:54.506Z,100652.72
2022-12-31T20:03:23.879Z,100661.50
2022-12-31T20:05:50.318Z,100662.47
2022-12-31T20:08:17.031Z,100671.38
2022-12-31T20:10:44.068Z,100672.16
2022-12-31T20:13:10.519Z,100659.78
2022-12-31T20:15:40.435Z,100671.25
2022-12-31T20:18:06.849Z,100681.25
2022-12-31T20:20:33.290Z,100673.09
2022-12-31T20:22:59.778Z,100685.56
2022-12-31T20:25:26.270Z,100678.47
2022-12-31T20:27:55.946Z,100689.09
2022-12-31T20:30:22.987Z,100679.31
2022-12-31T20:32:52.062Z,100683.81
2022-12-31T20:35:19.377Z,100679.31
2022-12-31T20:37:46.099Z,100688.31
2022-12-31T20:40:13.122Z,100675.69
2022-12-31T20:42:41.886Z,100693.50
2022-12-31T20:45:10.504Z,100698.88
2022-12-31T20:47:37.324Z,100705.09
2022-12-31T20:50:12.669Z,100681.06
2022-12-31T20:52:39.474Z,100695.41
2022-12-31T20:55:06.467Z,100709.59
2022-12-31T20:57:34.056Z,100710.44
2022-12-31T21:00:04.245Z,100706.91
2022-12-31T21:02:41.312Z,100698.09
2022-12-31T21:05:09.488Z,100688.44
2022-12-31T21:07:36.006Z,100696.28
2022-12-31T21:10:02.398Z,100694.47
2022-12-31T21:12:43.988Z,100701.47
2022-12-31T21:15:12.406Z,100702.31
2022-12-31T21:17:39.000Z,100706.91
2022-12-31T21:20:06.042Z,100713.06
2022-12-31T21:22:33.668Z,100713.06
2022-12-31T21:25:04.546Z,100714.66
2022-12-31T21:27:31.704Z,100712.19
2022-12-31T21:32:44.635Z,100716.59
2022-12-31T21:38:01.873Z,100733.66
2022-12-31T21:40:28.749Z,100731.72
2022-12-31T21:42:55.121Z,100724.44
2022-12-31T21:45:21.638Z,100727.22
2022-12-31T21:48:06.772Z,100707.50
2022-12-31T21:50:33.827Z,100715.94
2022-12-31T21:53:00.242Z,100731.72
2022-12-31T21:55:45.275Z,100732.69
2022-12-31T21:58:28.148Z,100721.09
2022-12-31T22:07:23.147Z,100715.53
2022-12-31T22:09:49.561Z,100728.47
2022-12-31T22:12:16.206Z,100755.78
2022-12-31T22:15:15.937Z,100753.16
2022-12-31T22:20:43.712Z,100755.97
2022-12-31T22:23:38.666Z,100747.06
2022-12-31T22:26:06.876Z,100758.66
2022-12-31T22:28:43.735Z,100740.25
2022-12-31T22:31:16.222Z,100754.41
2022-12-31T22:33:43.710Z,100750.59
2022-12-31T22:36:15.870Z,100755.00
2022-12-31T22:38:42.888Z,100750.59
2022-12-31T22:41:18.870Z,100752.44
2022-12-31T22:43:48.448Z,100750.78
2022-12-31T22:46:26.693Z,100745.41
2022-12-31T22:48:56.787Z,100748.84
2022-12-31T22:51:23.240Z,100755.28
2022-12-31T22:53:49.688Z,100750.69
2022-12-31T22:56:18.255Z,100741.22
2022-12-31T22:58:45.520Z,100758.72
2022-12-31T23:01:23.108Z,100749.34
2022-12-31T23:03:51.811Z,100765.84
2022-12-31T23:06:19.072Z,100759.59
2022-12-31T23:09:05.686Z,100752.13
2022-12-31T23:11:33.576Z,100766.78
2022-12-31T23:14:18.838Z,100765.06
2022-12-31T23:17:30.965Z,100763.22
2022-12-31T23:20:09.319Z,100780.38
2022-12-31T23:22:54.087Z,100780.47
2022-12-31T23:25:21.094Z,100784.69
2022-12-31T23:27:47.784Z,100782.97
2022-12-31T23:30:14.252Z,100788.16
2022-12-31T23:32:40.682Z,100794.38
2022-12-31T23:35:09.961Z,100806.81
2022-12-31T23:37:36.874Z,100805.97
2022-12-31T23:40:03.645Z,100802.69
2022-12-31T23:42:30.021Z,100796.09
2022-12-31T23:44:56.348Z,100783.16
2022-12-31T23:47:22.802Z,100803.38
2022-12-31T23:49:49.202Z,100794.25
2022-12-31T23:52:15.710Z,100781.03
2022-12-31T23:54:42.070Z,100784.31
2022-12-31T23:57:08.551Z,100792.53
2022-12-31T23:59:34.911Z,100794.44
